createdAt,value
2022-09-07T00:03:59.487Z,13.74
2022-09-07T00:09:03.297Z,13.73
2022-09-07T00:14:07.565Z,13.73
2022-09-07T00:19:11.832Z,13.72
2022-09-07T00:24:14.708Z,13.70
2022-09-07T00:29:17.591Z,13.68
2022-09-07T00:34:21.824Z,13.59
2022-09-07T00:39:24.815Z,13.48
2022-09-07T00:45:01.883Z,13.40
2022-09-07T00:50:13.635Z,13.36
2022-09-07T00:55:18.720Z,13.38
2022-09-07T01:00:22.453Z,13.32
2022-09-07T01:05:30.661Z,13.27
2022-09-07T01:10:33.630Z,13.24
2022-09-07T01:15:45.553Z,13.23
2022-09-07T01:21:22.653Z,13.26
2022-09-07T01:27:04.242Z,13.24
2022-09-07T01:32:14.062Z,13.23
2022-09-07T01:37:23.930Z,13.24
2022-09-07T01:42:31.512Z,13.19
2022-09-07T01:47:40.554Z,13.18
2022-09-07T01:52:49.900Z,13.21
2022-09-07T01:57:56.890Z,13.18
2022-09-07T02:03:10.045Z,13.04
2022-09-07T02:08:17.032Z,12.93
2022-09-07T02:13:24.400Z,12.90
2022-09-07T02:18:34.492Z,12.84
2022-09-07T02:23:45.515Z,12.86
2022-09-07T02:28:49.171Z,12.86
2022-09-07T02:33:53.682Z,12.85
2022-09-07T02:38:56.560Z,12.89
2022-09-07T02:44:00.036Z,12.96
2022-09-07T02:49:11.885Z,13.03
2022-09-07T02:54:30.666Z,13.12
2022-09-07T02:59:47.128Z,13.15
2022-09-07T03:05:02.643Z,13.18
2022-09-07T03:10:07.734Z,13.22
2022-09-07T03:15:12.669Z,13.22
2022-09-07T03:20:18.158Z,13.22
2022-09-07T03:25:23.403Z,13.17
2022-09-07T03:30:26.354Z,13.15
2022-09-07T03:35:30.596Z,13.15
2022-09-07T03:40:33.433Z,13.09
2022-09-07T03:45:36.292Z,12.97
2022-09-07T03:50:40.539Z,12.83
2022-09-07T03:55:43.399Z,12.63
2022-09-07T04:00:46.278Z,12.48
2022-09-07T04:05:50.553Z,12.47
2022-09-07T04:10:53.438Z,12.52
2022-09-07T04:15:56.412Z,12.60
2022-09-07T04:21:01.271Z,12.68
2022-09-07T04:26:04.110Z,12.75
2022-09-07T04:31:07.399Z,12.79
2022-09-07T04:36:12.044Z,12.85
2022-09-07T04:41:16.663Z,12.88
2022-09-07T04:46:21.809Z,12.88
2022-09-07T04:51:28.418Z,12.84
2022-09-07T04:56:31.840Z,12.83
2022-09-07T05:01:35.585Z,12.87
2022-09-07T05:06:40.130Z,12.90
2022-09-07T05:11:43.156Z,12.95
2022-09-07T05:16:46.067Z,13.02
2022-09-07T05:21:50.338Z,13.12
2022-09-07T05:26:53.624Z,13.18
2022-09-07T05:31:56.863Z,13.26
2022-09-07T05:37:01.124Z,13.36
2022-09-07T05:42:04.176Z,13.45
2022-09-07T05:47:07.315Z,13.52
2022-09-07T05:52:11.864Z,13.58
2022-09-07T05:57:15.107Z,13.62
2022-09-07T06:02:18.060Z,13.71
2022-09-07T06:07:23.366Z,13.81
2022-09-07T06:12:26.543Z,13.88
2022-09-07T06:17:31.334Z,13.88
2022-09-07T06:22:37.823Z,13.92
2022-09-07T06:27:40.706Z,13.99
2022-09-07T06:32:44.115Z,14.07
2022-09-07T06:37:49.213Z,14.17
2022-09-07T06:42:52.089Z,14.24
2022-09-07T06:47:55.391Z,14.34
2022-09-07T06:58:24.712Z,14.52
2022-09-07T07:03:31.855Z,14.59
2022-09-07T07:08:36.635Z,14.73
2022-09-07T07:13:41.169Z,14.84
2022-09-07T07:18:45.332Z,14.92
2022-09-07T07:23:52.784Z,15.04
2022-09-07T07:29:00.754Z,15.13
2022-09-07T07:34:05.034Z,15.24
2022-09-07T07:44:32.174Z,15.42
2022-09-07T07:49:34.991Z,15.46
2022-09-07T07:54:39.164Z,15.56
2022-09-07T07:59:42.466Z,15.68
2022-09-07T08:04:45.568Z,15.82
2022-09-07T08:09:49.780Z,15.92
2022-09-07T08:14:54.051Z,16.07
2022-09-07T08:19:56.969Z,16.21
2022-09-07T08:25:01.278Z,16.36
2022-09-07T08:30:04.440Z,16.52
2022-09-07T08:35:08.073Z,16.67
2022-09-07T08:40:16.925Z,16.76
2022-09-07T08:45:26.726Z,16.96
2022-09-07T08:50:33.769Z,17.14
2022-09-07T08:55:41.389Z,17.33
2022-09-07T09:00:44.173Z,17.25
2022-09-07T09:06:01.672Z,17.30
2022-09-07T09:11:11.565Z,17.38
2022-09-07T09:16:21.705Z,17.54
2022-09-07T09:21:24.814Z,17.72
2022-09-07T09:26:32.125Z,17.89
2022-09-07T09:31:36.987Z,18.13
2022-09-07T09:36:46.164Z,18.31
2022-09-07T09:41:50.361Z,18.54
2022-09-07T09:52:42.972Z,18.87
2022-09-07T10:08:56.394Z,19.37
2022-09-07T10:14:00.646Z,19.44
2022-09-07T10:19:03.455Z,19.52
2022-09-07T10:24:16.016Z,19.65
2022-09-07T10:29:29.141Z,19.79
2022-09-07T10:34:45.918Z,19.91
2022-09-07T10:40:01.245Z,20.13
2022-09-07T10:45:19.105Z,20.31
2022-09-07T10:50:31.610Z,20.31
2022-09-07T10:55:40.193Z,20.36
2022-09-07T11:00:58.292Z,20.34
2022-09-07T11:06:14.333Z,20.43
2022-09-07T11:12:00.645Z,20.30
2022-09-07T11:16:54.895Z,20.39
2022-09-07T11:22:04.741Z,20.54
2022-09-07T11:27:12.252Z,20.78
2022-09-07T11:32:22.434Z,20.92
2022-09-07T11:37:31.692Z,21.01
2022-09-07T11:42:46.040Z,21.09
2022-09-07T11:53:01.726Z,21.30
2022-09-07T11:58:25.470Z,21.32
2022-09-07T12:03:49.553Z,21.34
2022-09-07T12:09:15.180Z,21.34
2022-09-07T12:14:35.182Z,21.24
2022-09-07T12:19:39.506Z,21.00
2022-09-07T12:24:45.331Z,20.65
2022-09-07T12:29:48.573Z,20.26
2022-09-07T12:34:55.266Z,19.98
2022-09-07T12:40:32.328Z,19.76
2022-09-07T12:45:52.642Z,19.64
2022-09-07T12:51:02.248Z,19.53
2022-09-07T12:56:21.857Z,19.50
2022-09-07T13:01:36.215Z,19.47
2022-09-07T13:07:08.153Z,19.43
2022-09-07T13:17:57.345Z,19.62
2022-09-07T13:23:23.947Z,19.69
2022-09-07T13:28:34.841Z,19.82
2022-09-07T13:33:50.492Z,19.89
2022-09-07T13:38:55.554Z,20.05
2022-09-07T13:44:01.603Z,20.28
2022-09-07T13:49:13.295Z,20.37
2022-09-07T13:54:27.966Z,20.53
2022-09-07T13:59:34.881Z,20.80
2022-09-07T14:04:42.692Z,21.05
2022-09-07T14:09:48.815Z,21.26
2022-09-07T14:15:10.186Z,21.52
2022-09-07T14:20:15.491Z,21.66
2022-09-07T14:25:22.172Z,21.79
2022-09-07T14:30:29.066Z,21.86
2022-09-07T14:35:34.521Z,21.81
2022-09-07T14:40:38.793Z,21.72
2022-09-07T14:45:41.584Z,21.80
2022-09-07T14:51:00.865Z,21.95
2022-09-07T14:56:20.904Z,22.05
2022-09-07T15:01:40.993Z,22.13
2022-09-07T15:07:01.789Z,22.22
2022-09-07T15:12:24.925Z,22.37
2022-09-07T15:17:43.389Z,22.40
2022-09-07T15:22:46.613Z,22.39
2022-09-07T15:27:50.977Z,22.45
2022-09-07T15:32:54.054Z,22.49
2022-09-07T15:38:05.547Z,22.53
2022-09-07T15:43:19.922Z,22.56
2022-09-07T15:48:25.943Z,22.51
2022-09-07T15:58:57.599Z,22.38
2022-09-07T16:04:01.412Z,22.32
2022-09-07T16:09:07.101Z,22.29
2022-09-07T16:14:12.346Z,22.25
2022-09-07T16:19:20.122Z,22.17
2022-09-07T16:24:23.056Z,22.09
2022-09-07T16:29:27.308Z,22.00
2022-09-07T16:34:30.213Z,21.96
2022-09-07T16:39:33.022Z,21.95
2022-09-07T16:44:37.110Z,21.95
2022-09-07T16:49:39.836Z,21.87
2022-09-07T16:54:42.600Z,21.83
2022-09-07T16:59:46.692Z,21.82
2022-09-07T17:04:50.607Z,21.75
2022-09-07T17:09:53.435Z,21.67
2022-09-07T17:14:57.552Z,21.60
2022-09-07T17:20:00.238Z,21.47
2022-09-07T17:25:02.942Z,21.35
2022-09-07T17:30:08.090Z,21.20
2022-09-07T17:35:10.814Z,21.12
2022-09-07T17:40:13.589Z,21.04
2022-09-07T17:45:18.168Z,20.96
2022-09-07T17:50:20.900Z,20.77
2022-09-07T17:55:23.878Z,20.51
2022-09-07T18:00:28.144Z,20.29
2022-09-07T18:05:30.873Z,20.19
2022-09-07T18:15:58.513Z,19.92
2022-09-07T18:21:01.262Z,19.81
2022-09-07T18:26:04.007Z,19.73
2022-09-07T18:31:10.293Z,19.54
2022-09-07T18:36:13.744Z,19.42
2022-09-07T18:41:17.278Z,19.32
2022-09-07T18:46:23.124Z,19.19
2022-09-07T18:51:26.302Z,19.14
2022-09-07T18:56:29.175Z,19.01
2022-09-07T19:01:33.327Z,18.87
2022-09-07T19:06:36.104Z,18.69
2022-09-07T19:11:41.683Z,18.50
2022-09-07T19:16:45.888Z,18.40
2022-09-07T19:21:49.460Z,18.34
2022-09-07T19:26:54.707Z,18.29
2022-09-07T19:32:07.479Z,18.24
2022-09-07T19:37:12.124Z,18.18
2022-09-07T19:42:14.844Z,18.18
2022-09-07T19:47:19.768Z,18.15
2022-09-07T19:52:22.631Z,18.12
2022-09-07T19:57:25.452Z,18.06
2022-09-07T20:02:29.550Z,18.01
2022-09-07T20:07:32.262Z,17.97
2022-09-07T20:12:35.001Z,17.97
2022-09-07T20:17:39.090Z,17.94
2022-09-07T20:22:41.836Z,17.90
2022-09-07T20:27:44.552Z,17.85
2022-09-07T20:32:48.628Z,17.75
2022-09-07T20:37:51.358Z,17.67
2022-09-07T20:42:54.070Z,17.68
2022-09-07T20:47:58.169Z,17.69
2022-09-07T20:53:00.940Z,17.67
2022-09-07T20:58:04.201Z,17.62
2022-09-07T21:03:08.289Z,17.60
2022-09-07T21:08:11.285Z,17.50
2022-09-07T21:13:14.919Z,17.46
2022-09-07T21:18:19.164Z,17.38
2022-09-07T21:23:22.073Z,17.26
2022-09-07T21:28:24.929Z,17.19
2022-09-07T21:33:30.351Z,17.09
2022-09-07T21:38:34.427Z,17.01
2022-09-07T21:43:37.669Z,16.90
2022-09-07T21:48:41.801Z,16.81
2022-09-07T21:53:45.050Z,16.67
2022-09-07T21:58:48.010Z,16.61
2022-09-07T22:03:56.787Z,16.59
2022-09-07T22:08:59.679Z,16.50
2022-09-07T22:14:04.655Z,16.44
2022-09-07T22:19:08.775Z,16.40
2022-09-07T22:24:15.125Z,16.32
2022-09-07T22:29:17.859Z,16.25
2022-09-07T22:34:22.024Z,16.24
2022-09-07T22:39:24.758Z,16.16
2022-09-07T22:44:28.889Z,16.09
2022-09-07T22:49:32.981Z,16.05
2022-09-07T22:54:35.689Z,16.03
2022-09-07T22:59:38.501Z,15.99
2022-09-07T23:04:43.327Z,15.96
2022-09-07T23:09:46.138Z,15.94
2022-09-07T23:14:48.823Z,15.94
2022-09-07T23:19:52.948Z,15.98
2022-09-07T23:24:55.715Z,16.02
2022-09-07T23:29:58.409Z,16.05
2022-09-07T23:35:03.815Z,16.12
2022-09-07T23:40:08.589Z,16.17
2022-09-07T23:45:11.673Z,16.24
2022-09-07T23:50:15.748Z,16.28
2022-09-07T23:55:18.576Z,16.32
